Terminal Aerodrome Forecast
Issued by NWS Cleveland, OH

Home | Current Version | Previous Version | Graphics & Text | Print | Product List | Glossary On
Versions: 1 2 3 4 5 6 7 8 9 10 11 12 13 14 15 16 17 18 19 20 21
000
FTUS41 KCLE 130300 AAA
TAFTOL
TAF AMD
KTOL 130340Z 1304/1324 VRB03KT P6SM OVC045
     FM130900 27006KT 5SM -RA BR OVC028
      TEMPO 1310/1312 6SM OVC012
     FM131200 28012G20KT P6SM OVC020
     FM131800 32008KT P6SM BKN035=

USA.gov is the U.S. government's official web portal to all federal, state and local government web resources and services.